createdAt,value
2019-04-06T00:01:41.849Z,9.60
2019-04-06T00:04:10.986Z,9.60
2019-04-06T00:06:40.075Z,9.60
2019-04-06T00:09:09.246Z,9.60
2019-04-06T00:11:38.458Z,9.60
2019-04-06T00:14:07.526Z,9.60
2019-04-06T00:16:36.652Z,9.60
2019-04-06T00:19:05.967Z,9.60
2019-04-06T00:21:35.226Z,9.60
2019-04-06T00:24:04.498Z,9.60
2019-04-06T00:26:34.008Z,9.60
2019-04-06T00:29:03.058Z,9.60
2019-04-06T00:31:49.537Z,9.60
2019-04-06T00:34:18.647Z,9.60
2019-04-06T00:36:47.850Z,9.70
2019-04-06T00:39:16.863Z,9.60
2019-04-06T00:41:45.962Z,9.60
2019-04-06T00:44:16.841Z,9.70
2019-04-06T00:46:46.093Z,9.70
2019-04-06T00:49:15.274Z,9.70
2019-04-06T00:51:44.778Z,9.70
2019-04-06T00:54:14.049Z,9.70
2019-04-06T00:56:43.315Z,9.70
2019-04-06T00:59:12.348Z,9.70
2019-04-06T01:01:41.480Z,9.80
2019-04-06T01:04:10.571Z,9.80
2019-04-06T01:06:39.539Z,9.70
2019-04-06T01:09:10.259Z,9.70
2019-04-06T01:11:39.545Z,9.70
2019-04-06T01:14:08.889Z,9.70
2019-04-06T01:16:38.030Z,9.70
2019-04-06T01:19:07.440Z,9.70
2019-04-06T01:21:36.702Z,9.70
2019-04-06T01:24:06.020Z,9.70
2019-04-06T01:26:35.240Z,9.70
2019-04-06T01:29:04.551Z,9.80
2019-04-06T01:31:33.747Z,9.70
2019-04-06T01:34:02.928Z,9.70
2019-04-06T01:36:32.292Z,9.70
2019-04-06T01:39:01.588Z,9.70
2019-04-06T01:41:30.855Z,9.70
2019-04-06T01:43:59.931Z,9.60
2019-04-06T01:46:29.141Z,9.70
2019-04-06T01:48:58.442Z,9.70
2019-04-06T01:51:27.526Z,9.60
2019-04-06T01:53:56.630Z,9.60
2019-04-06T01:56:25.872Z,9.60
2019-04-06T01:58:54.933Z,9.70
2019-04-06T02:02:01.727Z,9.70
2019-04-06T02:04:30.977Z,9.70
2019-04-06T02:07:00.211Z,9.70
2019-04-06T02:09:29.355Z,9.70
2019-04-06T02:11:58.603Z,9.70
2019-04-06T02:14:28.202Z,9.70
2019-04-06T02:16:57.350Z,9.70
2019-04-06T02:19:26.438Z,9.70
2019-04-06T02:21:55.713Z,9.70
2019-04-06T02:24:25.160Z,9.70
2019-04-06T02:26:54.543Z,9.70
2019-04-06T02:29:23.689Z,9.60
2019-04-06T02:32:10.674Z,9.60
2019-04-06T02:34:57.709Z,9.70
2019-04-06T02:37:49.205Z,9.70
2019-04-06T02:40:39.155Z,9.60
2019-04-06T02:43:15.255Z,9.70
2019-04-06T02:45:44.476Z,9.70
2019-04-06T02:48:13.542Z,9.70
2019-04-06T02:50:42.885Z,9.70
2019-04-06T02:53:12.080Z,9.70
2019-04-06T02:55:41.364Z,9.70
2019-04-06T02:58:10.558Z,9.70
2019-04-06T03:00:39.743Z,9.70
2019-04-06T03:03:09.104Z,9.70
2019-04-06T03:05:38.445Z,9.70
2019-04-06T03:08:07.877Z,9.70
2019-04-06T03:10:36.929Z,9.70
2019-04-06T03:13:06.283Z,9.60
2019-04-06T03:15:35.630Z,9.60
2019-04-06T03:18:04.830Z,9.70
2019-04-06T03:20:34.069Z,9.70
2019-04-06T03:23:03.414Z,9.70
2019-04-06T03:25:32.604Z,9.60
2019-04-06T03:28:01.653Z,9.70
2019-04-06T03:30:31.263Z,9.60
2019-04-06T03:33:00.994Z,9.50
2019-04-06T03:35:30.963Z,9.60
2019-04-06T03:38:00.362Z,9.60
2019-04-06T03:40:29.587Z,9.60
2019-04-06T03:42:58.707Z,9.50
2019-04-06T03:45:27.987Z,9.50
2019-04-06T03:47:57.683Z,9.50
2019-04-06T03:50:26.859Z,9.50
2019-04-06T03:52:55.935Z,9.50
2019-04-06T03:55:24.910Z,9.50
2019-04-06T03:57:54.531Z,9.60
2019-04-06T04:00:23.791Z,9.60
2019-04-06T04:02:53.378Z,9.50
2019-04-06T04:05:22.930Z,9.50
2019-04-06T04:07:52.495Z,9.40
2019-04-06T04:10:36.259Z,9.40
2019-04-06T04:13:05.874Z,9.40
2019-04-06T04:15:35.126Z,9.40
2019-04-06T04:18:04.735Z,9.40
2019-04-06T04:20:34.079Z,9.40
2019-04-06T04:23:03.186Z,9.30
2019-04-06T04:25:32.682Z,9.30
2019-04-06T04:28:02.087Z,9.30
2019-04-06T04:30:33.915Z,9.30
2019-04-06T04:33:01.956Z,9.30
2019-04-06T04:35:31.545Z,9.30
2019-04-06T04:38:00.733Z,9.20
2019-04-06T04:40:30.067Z,9.30
2019-04-06T04:42:59.368Z,9.20
2019-04-06T04:45:28.499Z,9.20
2019-04-06T04:47:58.124Z,9.20
2019-04-06T04:50:27.379Z,9.20
2019-04-06T04:52:57.394Z,9.30
2019-04-06T04:55:26.577Z,9.30
2019-04-06T04:57:55.771Z,9.30
2019-04-06T05:00:25.111Z,9.30
2019-04-06T05:02:55.249Z,9.30
2019-04-06T05:05:24.399Z,9.30
2019-04-06T05:07:53.807Z,9.30
2019-04-06T05:10:23.565Z,9.30
2019-04-06T05:12:52.653Z,9.30
2019-04-06T05:15:30.799Z,9.30
2019-04-06T05:17:59.940Z,9.30
2019-04-06T05:20:29.141Z,9.20
2019-04-06T05:22:58.288Z,9.30
2019-04-06T05:25:27.565Z,9.30
2019-04-06T05:27:57.004Z,9.30
2019-04-06T05:30:26.151Z,9.30
2019-04-06T05:32:55.260Z,9.40
2019-04-06T05:35:24.458Z,9.40
2019-04-06T05:37:53.588Z,9.50
2019-04-06T05:40:23.052Z,9.50
2019-04-06T05:42:52.350Z,9.50
2019-04-06T05:45:21.554Z,9.40
2019-04-06T05:47:50.942Z,9.40
2019-04-06T05:50:20.837Z,9.40
2019-04-06T05:52:50.432Z,9.40
2019-04-06T05:55:19.572Z,9.40
2019-04-06T05:57:48.708Z,9.40
2019-04-06T06:00:17.887Z,9.40
2019-04-06T06:02:46.879Z,9.50
2019-04-06T06:05:16.083Z,9.50
2019-04-06T06:07:45.286Z,9.50
2019-04-06T06:10:14.372Z,9.60
2019-04-06T06:12:43.549Z,9.60
2019-04-06T06:15:13.085Z,9.60
2019-04-06T06:17:42.258Z,9.70
2019-04-06T06:20:11.578Z,9.70
2019-04-06T06:22:40.815Z,9.70
2019-04-06T06:25:10.181Z,9.70
2019-04-06T06:27:39.323Z,9.80
2019-04-06T06:30:09.157Z,9.80
2019-04-06T06:32:38.415Z,9.80
2019-04-06T06:35:07.771Z,9.80
2019-04-06T06:37:37.194Z,9.80
2019-04-06T06:40:06.778Z,9.80
2019-04-06T06:42:36.071Z,9.90
2019-04-06T06:45:05.736Z,9.90
2019-04-06T06:47:34.951Z,9.90
2019-04-06T06:50:04.522Z,9.90
2019-04-06T06:52:33.619Z,9.90
2019-04-06T06:55:04.836Z,9.90
2019-04-06T06:57:34.145Z,9.90
2019-04-06T07:00:03.712Z,9.90
2019-04-06T07:02:32.959Z,9.90
2019-04-06T07:05:03.557Z,9.90
2019-04-06T07:07:32.994Z,9.90
2019-04-06T07:10:05.686Z,9.90
2019-04-06T07:12:32.996Z,10.00
2019-04-06T07:15:02.271Z,10.00
2019-04-06T07:17:31.396Z,9.90
2019-04-06T07:20:00.799Z,10.00
2019-04-06T07:22:31.827Z,10.00
2019-04-06T07:25:20.275Z,10.00
2019-04-06T07:27:49.395Z,10.00
2019-04-06T07:30:18.811Z,10.00
2019-04-06T07:32:47.976Z,10.10
2019-04-06T07:35:17.123Z,10.10
2019-04-06T07:37:46.568Z,10.10
2019-04-06T07:40:19.094Z,10.10
2019-04-06T07:42:48.139Z,10.10
2019-04-06T07:45:17.406Z,10.20
2019-04-06T07:47:46.803Z,10.20
2019-04-06T07:50:19.392Z,10.20
2019-04-06T07:52:48.616Z,10.30
2019-04-06T07:55:17.874Z,10.30
2019-04-06T07:57:46.974Z,10.30
2019-04-06T08:00:16.486Z,10.30
2019-04-06T08:02:45.665Z,10.40
2019-04-06T08:05:15.114Z,10.40
2019-04-06T08:07:44.383Z,10.50
2019-04-06T08:10:15.323Z,10.50
2019-04-06T08:12:44.391Z,10.60
2019-04-06T08:15:13.608Z,10.60
2019-04-06T08:17:44.520Z,10.70
2019-04-06T08:20:13.898Z,10.70
2019-04-06T08:22:43.500Z,10.80
2019-04-06T08:25:32.531Z,10.90
2019-04-06T08:28:02.319Z,10.80
2019-04-06T08:30:31.937Z,10.90
2019-04-06T08:33:01.550Z,11.00
2019-04-06T08:35:30.890Z,11.10
2019-04-06T08:38:02.254Z,11.10
2019-04-06T08:40:34.341Z,11.20
2019-04-06T08:43:03.594Z,11.20
2019-04-06T08:45:32.997Z,11.30
2019-04-06T08:48:03.150Z,11.30
2019-04-06T08:50:40.247Z,11.30
2019-04-06T08:53:09.458Z,11.30
2019-04-06T08:55:39.052Z,11.40
2019-04-06T08:58:08.380Z,11.50
2019-04-06T09:00:38.035Z,11.50
2019-04-06T09:03:07.474Z,11.60
2019-04-06T09:05:40.200Z,11.60
2019-04-06T09:08:09.370Z,11.70
2019-04-06T09:10:57.728Z,11.80
2019-04-06T09:13:26.898Z,11.90
2019-04-06T09:15:56.114Z,11.90
2019-04-06T09:18:25.286Z,11.90
2019-04-06T09:20:56.151Z,11.90
2019-04-06T09:23:27.740Z,12.00
2019-04-06T09:25:57.410Z,12.10
2019-04-06T09:28:26.688Z,12.10
2019-04-06T09:30:55.819Z,12.10
2019-04-06T09:33:25.160Z,12.20
2019-04-06T09:35:54.795Z,12.30
2019-04-06T09:38:24.269Z,12.20
2019-04-06T09:40:53.988Z,12.30
2019-04-06T09:43:24.480Z,12.30
2019-04-06T09:46:18.187Z,12.40
2019-04-06T09:49:02.677Z,12.40
2019-04-06T09:51:51.487Z,12.60
2019-04-06T09:54:39.932Z,12.60
2019-04-06T09:57:43.701Z,12.60
2019-04-06T10:00:31.142Z,12.70
2019-04-06T10:03:19.116Z,12.70
2019-04-06T10:05:59.255Z,12.80
2019-04-06T10:08:38.688Z,12.80
2019-04-06T10:11:35.817Z,13.00
2019-04-06T10:14:18.321Z,13.00
2019-04-06T10:17:12.845Z,13.10
2019-04-06T10:19:57.403Z,13.20
2019-04-06T10:22:42.082Z,13.30
2019-04-06T10:25:23.848Z,13.40
2019-04-06T10:28:12.228Z,13.50
2019-04-06T10:31:00.563Z,13.60
2019-04-06T10:33:41.785Z,13.80
2019-04-06T10:36:23.848Z,13.90
2019-04-06T10:39:08.245Z,14.00
2019-04-06T10:42:02.227Z,14.00
2019-04-06T10:47:53.752Z,14.20
2019-04-06T10:50:40.989Z,14.30
2019-04-06T10:53:32.718Z,14.30
2019-04-06T10:56:16.315Z,14.40
2019-04-06T10:59:13.275Z,14.50
2019-04-06T11:02:00.373Z,14.60
2019-04-06T11:04:33.994Z,14.70
2019-04-06T11:07:24.327Z,14.90
2019-04-06T11:10:27.973Z,15.00
2019-04-06T11:13:25.022Z,15.20
2019-04-06T11:16:07.839Z,15.30
2019-04-06T11:18:57.264Z,15.40
2019-04-06T11:21:57.695Z,15.50
2019-04-06T11:24:52.064Z,15.50
2019-04-06T11:27:37.280Z,15.60
2019-04-06T11:30:29.083Z,15.70
2019-04-06T11:33:26.761Z,15.80
2019-04-06T11:36:04.396Z,15.80
2019-04-06T11:38:54.022Z,15.90
2019-04-06T11:41:48.096Z,16.00
2019-04-06T11:44:36.711Z,16.10
2019-04-06T11:47:20.860Z,16.30
2019-04-06T11:50:09.073Z,16.30
2019-04-06T11:52:57.205Z,16.40
2019-04-06T11:55:49.480Z,16.50
2019-04-06T11:58:29.312Z,16.50
2019-04-06T12:01:13.920Z,16.60
2019-04-06T12:04:12.681Z,16.60
2019-04-06T12:07:03.698Z,16.70
2019-04-06T12:09:44.654Z,16.80
2019-04-06T12:12:31.634Z,16.90
2019-04-06T12:15:09.826Z,16.90
2019-04-06T12:17:57.163Z,17.00
2019-04-06T12:20:34.174Z,17.10
2019-04-06T12:23:25.217Z,17.20
2019-04-06T12:26:09.454Z,17.30
2019-04-06T12:29:15.789Z,17.40
2019-04-06T12:31:53.123Z,17.50
2019-04-06T12:35:00.720Z,17.70
2019-04-06T12:37:58.391Z,17.70
2019-04-06T12:40:47.154Z,17.80
2019-04-06T12:43:37.521Z,17.90
2019-04-06T12:46:41.021Z,17.90
2019-04-06T12:49:47.258Z,17.90
2019-04-06T12:52:53.877Z,18.00
2019-04-06T12:55:32.282Z,18.00
2019-04-06T12:58:32.522Z,18.10
2019-04-06T13:01:29.279Z,18.10
2019-04-06T13:04:17.346Z,18.20
2019-04-06T13:07:05.663Z,18.30
2019-04-06T13:09:44.525Z,18.30
2019-04-06T13:12:34.539Z,18.40
2019-04-06T13:15:12.479Z,18.50
2019-04-06T13:17:53.903Z,18.50
2019-04-06T13:20:40.785Z,18.50
2019-04-06T13:23:33.895Z,18.60
2019-04-06T13:26:12.921Z,18.60
2019-04-06T13:28:56.853Z,18.60
2019-04-06T13:31:33.650Z,18.60
2019-04-06T13:34:17.780Z,18.60
2019-04-06T13:37:03.951Z,18.60
2019-04-06T13:39:55.031Z,18.60
2019-04-06T13:42:41.726Z,18.60
2019-04-06T13:45:32.711Z,18.70
2019-04-06T13:48:20.119Z,18.70
2019-04-06T13:51:05.387Z,18.70
2019-04-06T13:53:56.391Z,18.80
2019-04-06T13:56:47.679Z,18.80
2019-04-06T13:59:45.140Z,18.80
2019-04-06T14:02:31.583Z,18.80
2019-04-06T14:05:20.067Z,18.90
2019-04-06T14:08:14.393Z,18.90
2019-04-06T14:10:56.777Z,18.90
2019-04-06T14:13:43.110Z,18.90
2019-04-06T14:16:31.555Z,18.90
2019-04-06T14:19:12.834Z,18.90
2019-04-06T14:22:11.011Z,18.90
2019-04-06T14:25:03.742Z,18.90
2019-04-06T14:27:44.588Z,18.90
2019-04-06T14:30:32.995Z,18.90
2019-04-06T14:33:11.005Z,18.90
2019-04-06T14:36:09.632Z,18.90
2019-04-06T14:39:01.060Z,18.90
2019-04-06T14:41:58.729Z,19.00
2019-04-06T14:44:54.039Z,19.00
2019-04-06T14:47:48.195Z,19.00
2019-04-06T14:50:43.891Z,19.00
2019-04-06T14:53:30.751Z,19.00
2019-04-06T14:56:06.601Z,19.00
2019-04-06T14:58:47.294Z,19.00
2019-04-06T15:01:51.998Z,19.00
2019-04-06T15:04:40.330Z,19.00
2019-04-06T15:07:34.740Z,19.00
2019-04-06T15:10:16.290Z,19.00
2019-04-06T15:13:16.702Z,19.00
2019-04-06T15:16:05.310Z,19.10
2019-04-06T15:18:49.507Z,19.10
2019-04-06T15:21:41.230Z,19.10
2019-04-06T15:24:28.099Z,19.10
2019-04-06T15:27:25.391Z,19.10
2019-04-06T15:30:19.577Z,19.10
2019-04-06T15:33:05.696Z,19.10
2019-04-06T15:35:52.766Z,19.10
2019-04-06T15:38:34.078Z,19.10
2019-04-06T15:41:21.290Z,19.20
2019-04-06T15:44:08.551Z,19.20
2019-04-06T15:46:45.047Z,19.10
2019-04-06T15:49:25.181Z,19.20
2019-04-06T15:52:22.599Z,19.20
2019-04-06T15:55:10.791Z,19.20
2019-04-06T15:57:56.721Z,19.20
2019-04-06T16:00:43.946Z,19.10
2019-04-06T16:03:25.473Z,19.20
2019-04-06T16:06:09.969Z,19.20
2019-04-06T16:08:57.045Z,19.20
2019-04-06T16:11:45.204Z,19.20
2019-04-06T16:14:22.745Z,19.30
2019-04-06T16:16:59.232Z,19.30
2019-04-06T16:19:48.229Z,19.30
2019-04-06T16:22:36.387Z,19.30
2019-04-06T16:25:24.869Z,19.30
2019-04-06T16:28:11.188Z,19.40
2019-04-06T16:30:59.885Z,19.40
2019-04-06T16:33:47.239Z,19.40
2019-04-06T16:36:25.348Z,19.50
2019-04-06T16:39:15.695Z,19.50
2019-04-06T16:42:13.221Z,19.50
2019-04-06T16:45:01.599Z,19.60
2019-04-06T16:47:41.587Z,19.60
2019-04-06T16:50:40.986Z,19.60
2019-04-06T16:53:29.463Z,19.50
2019-04-06T16:56:24.804Z,19.50
2019-04-06T16:59:24.993Z,19.50
2019-04-06T17:02:24.711Z,19.40
2019-04-06T17:05:08.234Z,19.50
2019-04-06T17:07:48.900Z,19.40
2019-04-06T17:10:39.925Z,19.40
2019-04-06T17:13:18.267Z,19.40
2019-04-06T17:19:12.359Z,19.30
2019-04-06T17:21:50.006Z,19.30
2019-04-06T17:24:32.690Z,19.30
2019-04-06T17:27:32.906Z,19.30
2019-04-06T17:30:20.162Z,19.30
2019-04-06T17:33:06.300Z,19.30
2019-04-06T17:36:00.900Z,19.30
2019-04-06T17:39:04.407Z,19.30
2019-04-06T17:41:40.716Z,19.30
2019-04-06T17:44:34.176Z,19.30
2019-04-06T17:47:25.591Z,19.20
2019-04-06T17:50:04.155Z,19.20
2019-04-06T17:52:38.477Z,19.20
2019-04-06T17:55:25.836Z,19.10
2019-04-06T17:58:13.062Z,19.10
2019-04-06T18:01:00.469Z,19.10
2019-04-06T18:03:59.695Z,19.00
2019-04-06T18:06:48.107Z,19.00
2019-04-06T18:09:36.702Z,18.90
2019-04-06T18:12:31.743Z,18.90
2019-04-06T18:15:00.974Z,18.80
2019-04-06T18:17:30.185Z,18.80
2019-04-06T18:19:59.545Z,18.70
2019-04-06T18:22:28.725Z,18.60
2019-04-06T18:24:57.976Z,18.60
2019-04-06T18:27:27.460Z,18.50
2019-04-06T18:29:56.740Z,18.50
2019-04-06T18:32:38.384Z,18.40
2019-04-06T18:35:09.958Z,18.40
2019-04-06T18:37:51.351Z,18.40
2019-04-06T18:40:25.911Z,18.30
2019-04-06T18:42:55.159Z,18.20
2019-04-06T18:45:25.723Z,18.20
2019-04-06T18:47:55.758Z,18.10
2019-04-06T18:50:34.252Z,18.10
2019-04-06T18:52:56.621Z,18.10
2019-04-06T18:55:27.128Z,18.00
2019-04-06T18:58:08.260Z,18.00
2019-04-06T19:00:27.458Z,18.00
2019-04-06T19:03:12.076Z,17.90
2019-04-06T19:05:33.911Z,17.90
2019-04-06T19:08:05.214Z,17.90
2019-04-06T19:10:34.887Z,17.90
2019-04-06T19:13:05.380Z,17.90
2019-04-06T19:15:35.004Z,17.80
2019-04-06T19:18:04.367Z,17.80
2019-04-06T19:20:34.048Z,17.70
2019-04-06T19:23:03.867Z,17.70
2019-04-06T19:25:33.091Z,17.60
2019-04-06T19:28:05.699Z,17.60
2019-04-06T19:30:35.163Z,17.60
2019-04-06T19:33:04.580Z,17.60
2019-04-06T19:35:39.686Z,17.60
2019-04-06T19:38:11.887Z,17.60
2019-04-06T19:40:41.539Z,17.50
2019-04-06T19:43:10.816Z,17.50
2019-04-06T19:45:39.975Z,17.50
2019-04-06T19:48:09.684Z,17.40
2019-04-06T19:50:39.271Z,17.40
2019-04-06T19:53:08.836Z,17.40
2019-04-06T19:55:38.432Z,17.30
2019-04-06T19:58:13.670Z,17.30
2019-04-06T20:00:42.987Z,17.30
2019-04-06T20:03:12.408Z,17.20
2019-04-06T20:05:41.706Z,17.20
2019-04-06T20:08:11.472Z,17.10
2019-04-06T20:10:41.154Z,16.90
2019-04-06T20:13:14.575Z,16.70
2019-04-06T20:15:44.268Z,16.60
2019-04-06T20:18:16.116Z,16.40
2019-04-06T20:20:45.641Z,16.30
2019-04-06T20:23:14.950Z,16.30
2019-04-06T20:25:44.261Z,16.20
2019-04-06T20:28:14.599Z,16.20
2019-04-06T20:30:44.141Z,16.20
2019-04-06T20:33:13.938Z,16.10
2019-04-06T20:35:44.378Z,16.10
2019-04-06T20:38:19.558Z,16.00
2019-04-06T20:40:49.369Z,16.00
2019-04-06T20:43:18.707Z,16.00
2019-04-06T20:45:47.924Z,16.00
2019-04-06T20:48:17.002Z,16.00
2019-04-06T20:50:46.259Z,16.00
2019-04-06T20:53:15.746Z,16.00
2019-04-06T20:55:45.223Z,16.00
2019-04-06T20:58:15.773Z,16.00
2019-04-06T21:00:45.002Z,15.90
2019-04-06T21:03:15.129Z,15.90
2019-04-06T21:05:44.527Z,15.90
2019-04-06T21:08:14.397Z,15.80
2019-04-06T21:10:45.914Z,15.80
2019-04-06T21:13:15.558Z,15.80
2019-04-06T21:15:45.093Z,15.70
2019-04-06T21:18:14.646Z,15.70
2019-04-06T21:20:44.069Z,15.70
2019-04-06T21:23:13.878Z,15.70
2019-04-06T21:25:43.717Z,15.70
2019-04-06T21:28:13.247Z,15.70
2019-04-06T21:30:43.061Z,15.70
2019-04-06T21:33:14.622Z,15.70
2019-04-06T21:35:44.646Z,15.70
2019-04-06T21:38:13.923Z,15.60
2019-04-06T21:40:43.373Z,15.60
2019-04-06T21:43:12.708Z,15.60
2019-04-06T21:45:42.391Z,15.50
2019-04-06T21:48:12.150Z,15.50
2019-04-06T21:50:41.300Z,15.50
2019-04-06T21:53:10.642Z,15.50
2019-04-06T21:55:40.027Z,15.40
2019-04-06T21:58:09.755Z,15.40
2019-04-06T22:01:10.267Z,15.40
2019-04-06T22:03:39.676Z,15.30
2019-04-06T22:06:09.109Z,15.30
2019-04-06T22:08:38.503Z,15.30
2019-04-06T22:11:08.851Z,15.40
2019-04-06T22:13:38.222Z,15.30
2019-04-06T22:16:08.689Z,15.30
2019-04-06T22:18:38.016Z,15.30
2019-04-06T22:21:07.222Z,15.20
2019-04-06T22:23:42.349Z,15.20
2019-04-06T22:26:08.076Z,15.20
2019-04-06T22:28:37.607Z,15.10
2019-04-06T22:31:07.176Z,15.10
2019-04-06T22:33:36.483Z,15.10
2019-04-06T22:36:05.663Z,15.10
2019-04-06T22:38:34.882Z,15.00
2019-04-06T22:41:03.977Z,15.00
2019-04-06T22:43:36.372Z,14.90
2019-04-06T22:46:05.624Z,14.90
2019-04-06T22:48:34.876Z,14.90
2019-04-06T22:51:04.565Z,14.90
2019-04-06T22:53:33.980Z,14.90
2019-04-06T22:56:03.425Z,14.90
2019-04-06T22:58:32.688Z,14.80
2019-04-06T23:01:07.068Z,14.80
2019-04-06T23:04:01.671Z,14.70
2019-04-06T23:06:35.423Z,14.60
2019-04-06T23:09:06.978Z,14.60
2019-04-06T23:11:36.654Z,14.60
2019-04-06T23:14:06.422Z,14.50
2019-04-06T23:16:35.770Z,14.50
2019-04-06T23:19:05.119Z,14.40
2019-04-06T23:21:34.240Z,14.40
2019-04-06T23:24:04.749Z,14.30
2019-04-06T23:26:34.465Z,14.30
2019-04-06T23:29:03.802Z,14.20
2019-04-06T23:31:33.462Z,14.20
2019-04-06T23:34:03.382Z,14.20
2019-04-06T23:36:32.983Z,14.10
2019-04-06T23:39:02.417Z,14.10
2019-04-06T23:41:32.257Z,14.10
2019-04-06T23:44:01.569Z,14.00
2019-04-06T23:46:30.921Z,13.90
2019-04-06T23:49:02.284Z,13.90
2019-04-06T23:51:31.414Z,13.80
2019-04-06T23:54:00.860Z,13.70
2019-04-06T23:56:30.138Z,13.70
2019-04-06T23:58:59.476Z,13.60
